Time;durP1;ratioP1;P1;durP2;ratioP2;P2;SDS_P1;SDS_P2;PMS_P1;PMS_P2;Temp;Humidity;BMP_temperature;BMP_pressure;BME280_temperature;BME280_humidity;BME280_pressure;Samples;Min_cycle;Max_cycle;Signal;HPM_P1;HPM_P2
2021/12/01 00:02:14;;;;;;;;;;;;;;;9.29;100.00;100039.38;5183693;28;19962;-77
2021/12/01 00:04:45;;;;;;;;;;;;;;;9.32;100.00;100035.19;5184694;28;20021;-78
2021/12/01 00:07:17;;;;;;;;;;;;;;;9.30;100.00;100032.72;5183708;28;19918;-78
2021/12/01 00:09:48;;;;;;;;;;;;;;;9.30;100.00;100015.31;5182956;28;19957;-78
2021/12/01 00:12:20;;;;;;;;;;;;;;;9.32;100.00;100013.06;5183995;28;19914;-78
2021/12/01 00:14:51;;;;;;;;;;;;;;;9.32;100.00;100002.00;5184235;28;20361;-78
2021/12/01 00:17:23;;;;;;;;;;;;;;;9.32;100.00;99990.94;5179579;28;20008;-79
2021/12/01 00:19:54;;;;;;;;;;;;;;;9.33;100.00;99998.09;5182411;28;19925;-78
2021/12/01 00:22:26;;;;;;;;;;;;;;;9.34;100.00;99983.16;5183440;28;20012;-79
2021/12/01 00:24:57;;;;;;;;;;;;;;;9.32;100.00;99971.56;5183196;28;20362;-79
2021/12/01 00:27:28;;;;;;;;;;;;;;;9.31;100.00;99964.41;5182464;28;19922;-78
2021/12/01 00:30:00;;;;;;;;;;;;;;;9.28;100.00;99960.28;5183186;28;19972;-78
2021/12/01 00:32:31;;;;;;;;;;;;;;;9.30;100.00;99946.13;5179052;28;19922;-78
2021/12/01 00:35:06;;;;;;;;;;;;;;;9.28;100.00;99929.00;5177137;28;19925;-78
2021/12/01 00:37:38;;;;;;;;;;;;;;;9.35;100.00;99926.66;5181839;28;19918;-78
2021/12/01 00:40:10;;;;;;;;;;;;;;;9.28;100.00;99929.00;5163574;28;20373;-78
2021/12/01 00:42:43;;;;;;;;;;;;;;;9.29;100.00;99916.84;5163706;28;19956;-77
2021/12/01 00:45:33;;;;;;;;;;;;;;;9.28;100.00;99904.09;5162744;28;19921;-78
2021/12/01 00:48:04;;;;;;;;;;;;;;;9.32;100.00;99899.63;5163134;28;19973;-78
2021/12/01 00:50:35;;;;;;;;;;;;;;;9.27;100.00;99910.78;5165638;28;19922;-78
2021/12/01 00:53:08;;;;;;;;;;;;;;;9.25;100.00;99896.41;5164667;28;19918;-79
2021/12/01 00:55:41;;;;;;;;;;;;;;;9.25;100.00;99896.41;5166260;28;20385;-79
2021/12/01 00:58:13;;;;;;;;;;;;;;;9.21;100.00;99895.41;5182878;28;20278;-80
2021/12/01 01:00:47;;;;;;;;;;;;;;;9.23;100.00;99884.81;5183651;28;20362;-80
2021/12/01 01:03:18;;;;;;;;;;;;;;;9.22;100.00;99888.72;5183087;28;19921;-79
2021/12/01 01:05:50;;;;;;;;;;;;;;;9.20;100.00;99877.97;5181255;28;19914;-79
2021/12/01 01:08:21;;;;;;;;;;;;;;;9.20;100.00;99877.97;5182143;28;19917;-79
2021/12/01 01:16:22;;;;;;;;;;;;;;;9.18;100.00;99851.72;5174428;28;19918;-80
2021/12/01 01:18:56;;;;;;;;;;;;;;;9.18;100.00;99848.94;5163534;28;19918;-79
2021/12/01 01:21:29;;;;;;;;;;;;;;;9.18;100.00;99848.94;5181466;28;20362;-80
2021/12/01 01:24:01;;;;;;;;;;;;;;;9.18;100.00;99846.19;5180017;28;19918;-79
2021/12/01 01:26:32;;;;;;;;;;;;;;;9.14;100.00;99834.91;5181461;28;19918;-80
2021/12/01 01:29:04;;;;;;;;;;;;;;;9.14;100.00;99829.38;5182770;28;19920;-79
2021/12/01 01:31:36;;;;;;;;;;;;;;;9.11;100.00;99828.06;5182795;28;19914;-79
2021/12/01 01:34:08;;;;;;;;;;;;;;;9.13;100.00;99817.50;5181682;28;19922;-79
2021/12/01 01:36:39;;;;;;;;;;;;;;;9.10;100.00;99814.53;5181582;28;19914;-79
2021/12/01 01:39:10;;;;;;;;;;;;;;;9.08;100.00;99806.53;5182165;28;20370;-79
2021/12/01 01:41:41;;;;;;;;;;;;;;;9.10;100.00;99818.13;5169609;28;20266;-80
2021/12/01 01:44:12;;;;;;;;;;;;;;;9.08;100.00;99823.13;5182427;28;19914;-80
2021/12/01 01:46:44;;;;;;;;;;;;;;;9.07;100.00;99807.66;5170893;28;19918;-79
2021/12/01 01:49:19;;;;;;;;;;;;;;;9.05;100.00;99804.38;5161552;29;19918;-79
2021/12/01 01:51:50;;;;;;;;;;;;;;;9.03;100.00;99801.09;5173707;28;20275;-80
2021/12/01 01:54:21;;;;;;;;;;;;;;;9.02;100.00;99791.16;5181634;28;19914;-79
2021/12/01 01:56:52;;;;;;;;;;;;;;;9.01;100.00;99788.72;5181515;28;19921;-79
2021/12/01 01:59:24;;;;;;;;;;;;;;;9.00;100.00;99785.13;5170339;28;20425;-79
2021/12/01 02:01:59;;;;;;;;;;;;;;;8.98;100.00;99773.53;5181757;28;19996;-79
2021/12/01 02:04:33;;;;;;;;;;;;;;;8.98;100.00;99768.00;5182059;28;19918;-80
2021/12/01 02:07:05;;;;;;;;;;;;;;;8.96;100.00;99763.91;5181637;28;20359;-79
2021/12/01 02:09:36;;;;;;;;;;;;;;;8.92;100.00;99763.69;5166765;28;19973;-80
2021/12/01 02:12:07;;;;;;;;;;;;;;;8.94;100.00;99747.63;5161811;28;19950;-79
2021/12/01 02:14:38;;;;;;;;;;;;;;;8.91;100.00;99731.66;5167346;28;20409;-80
2021/12/01 02:17:10;;;;;;;;;;;;;;;8.90;100.00;99735.53;5180635;28;19917;-80
2021/12/01 02:19:41;;;;;;;;;;;;;;;8.89;100.00;99728.34;5181876;28;19918;-80
2021/12/01 02:22:13;;;;;;;;;;;;;;;8.86;100.00;99717.91;5180574;28;19914;-79
2021/12/01 02:24:47;;;;;;;;;;;;;;;8.87;99.19;99719.53;5181514;28;20381;-79
2021/12/01 02:27:18;;;;;;;;;;;;;;;8.88;99.29;99710.94;5179125;28;19914;-79
2021/12/01 02:29:51;;;;;;;;;;;;;;;8.90;99.30;99711.47;5180461;28;20005;-79
2021/12/01 02:32:22;;;;;;;;;;;;;;;8.85;98.52;99703.28;5169530;28;20269;-79
2021/12/01 02:34:53;;;;;;;;;;;;;;;8.84;98.99;99690.56;5179524;28;19918;-79
2021/12/01 02:37:24;;;;;;;;;;;;;;;8.85;99.39;99694.16;5180134;28;19921;-79
2021/12/01 02:39:56;;;;;;;;;;;;;;;8.79;98.17;99678.78;5180907;28;19922;-79
2021/12/01 02:42:27;;;;;;;;;;;;;;;8.85;98.02;99683.09;5180862;28;19914;-79
2021/12/01 02:44:59;;;;;;;;;;;;;;;8.81;98.85;99668.25;5180638;28;19941;-79
2021/12/01 02:47:30;;;;;;;;;;;;;;;8.78;97.49;99652.28;5180967;28;19918;-79
2021/12/01 02:50:02;;;;;;;;;;;;;;;8.75;98.13;99647.38;5168971;28;19937;-80
2021/12/01 02:52:34;;;;;;;;;;;;;;;8.75;97.89;99639.06;5170723;28;19918;-79
2021/12/01 02:55:06;;;;;;;;;;;;;;;8.76;98.07;99635.19;5181184;28;19965;-79
2021/12/01 02:57:42;;;;;;;;;;;;;;;8.70;98.14;99642.75;5166284;28;20018;-80
2021/12/01 03:00:14;;;;;;;;;;;;;;;8.68;97.65;99629.22;5161184;28;19914;-79
2021/12/01 03:02:45;;;;;;;;;;;;;;;8.68;97.32;99629.22;5160956;29;19921;-79
2021/12/01 03:05:17;;;;;;;;;;;;;;;8.69;97.41;99625.34;5163090;28;20377;-80
2021/12/01 03:07:49;;;;;;;;;;;;;;;8.67;97.37;99610.22;5180629;28;20337;-80
2021/12/01 03:10:20;;;;;;;;;;;;;;;8.66;97.03;99603.84;5180921;28;19925;-80
2021/12/01 03:12:51;;;;;;;;;;;;;;;8.66;97.45;99612.13;5180077;28;19921;-79
2021/12/01 03:15:23;;;;;;;;;;;;;;;8.64;97.20;99584.00;5180808;28;20393;-78
2021/12/01 03:17:54;;;;;;;;;;;;;;;8.63;96.74;99587.88;5165546;28;19918;-79
2021/12/01 03:20:25;;;;;;;;;;;;;;;8.64;95.82;99585.91;5168469;28;19918;-79
2021/12/01 03:22:57;;;;;;;;;;;;;;;8.64;96.56;99581.25;5172564;28;19942;-79
2021/12/01 03:25:29;;;;;;;;;;;;;;;8.64;95.90;99583.16;5176807;28;19917;-79
2021/12/01 03:28:01;;;;;;;;;;;;;;;8.60;95.71;99576.63;5180406;28;20405;-78
2021/12/01 03:30:34;;;;;;;;;;;;;;;8.61;95.55;99569.97;5180498;28;19918;-79
2021/12/01 03:33:10;;;;;;;;;;;;;;;8.60;95.18;99554.50;5180301;28;19914;-78
2021/12/01 03:35:42;;;;;;;;;;;;;;;8.60;95.42;99560.84;5183301;28;19918;-78
2021/12/01 03:38:14;;;;;;;;;;;;;;;8.58;95.87;99549.28;5183310;28;19918;-79
2021/12/01 03:40:45;;;;;;;;;;;;;;;8.61;94.89;99545.09;5172047;28;19921;-79
2021/12/01 03:43:17;;;;;;;;;;;;;;;8.60;95.51;99527.69;5184873;28;19921;-79
2021/12/01 03:45:48;;;;;;;;;;;;;;;8.62;95.62;99530.97;5184491;28;19914;-78
2021/12/01 03:48:21;;;;;;;;;;;;;;;8.55;96.08;99524.22;5182697;28;19922;-78
2021/12/01 03:50:54;;;;;;;;;;;;;;;8.52;96.45;99520.13;5172120;28;19989;-78
2021/12/01 03:53:26;;;;;;;;;;;;;;;8.50;96.57;99508.56;5164731;28;19914;-78
2021/12/01 03:55:59;;;;;;;;;;;;;;;8.48;95.98;99495.03;5186414;28;19932;-77
2021/12/01 03:58:30;;;;;;;;;;;;;;;8.48;95.96;99485.94;5176109;28;20377;-78
2021/12/01 04:01:01;;;;;;;;;;;;;;;8.46;95.74;99468.84;5183557;28;20012;-78
2021/12/01 04:03:32;;;;;;;;;;;;;;;8.44;96.10;99462.84;5184313;28;19921;-78
2021/12/01 04:06:03;;;;;;;;;;;;;;;8.45;95.70;99453.41;5184013;28;19914;-78
2021/12/01 04:08:35;;;;;;;;;;;;;;;8.44;95.50;99452.59;5183807;28;19918;-77
2021/12/01 04:11:06;;;;;;;;;;;;;;;8.44;95.47;99440.75;5183946;28;19918;-78
2021/12/01 04:13:38;;;;;;;;;;;;;;;8.43;95.25;99439.91;5178915;28;19989;-77
2021/12/01 04:16:09;;;;;;;;;;;;;;;8.46;95.23;99438.47;5177796;28;19925;-78
2021/12/01 04:18:42;;;;;;;;;;;;;;;8.41;95.45;99439.41;5183465;28;19918;-78
2021/12/01 04:21:13;;;;;;;;;;;;;;;8.41;94.26;99424.75;5183972;28;20028;-78
2021/12/01 04:23:44;;;;;;;;;;;;;;;8.36;94.52;99422.91;5190026;28;20012;-78
2021/12/01 04:26:19;;;;;;;;;;;;;;;8.37;94.40;99419.00;5203619;28;19918;-78
2021/12/01 04:28:51;;;;;;;;;;;;;;;8.36;95.17;99413.78;5181378;28;19918;-79
2021/12/01 04:31:23;;;;;;;;;;;;;;;8.36;95.36;99413.78;5179569;28;20008;-78
2021/12/01 04:33:55;;;;;;;;;;;;;;;8.33;94.60;99398.66;5183524;28;19954;-78
2021/12/01 04:36:29;;;;;;;;;;;;;;;8.28;94.92;99391.31;5182533;28;19921;-79
2021/12/01 04:39:03;;;;;;;;;;;;;;;8.27;95.52;99378.63;5203052;28;20004;-79
2021/12/01 04:41:40;;;;;;;;;;;;;;;8.27;93.95;99372.28;5199163;28;19914;-79
2021/12/01 04:44:14;;;;;;;;;;;;;;;8.28;93.97;99349.03;5182993;28;19969;-78
2021/12/01 04:46:47;;;;;;;;;;;;;;;8.33;93.50;99356.41;5182678;28;19918;-79
2021/12/01 04:49:21;;;;;;;;;;;;;;;8.37;93.95;99354.66;5171284;28;19922;-79
2021/12/01 04:51:55;;;;;;;;;;;;;;;8.28;93.89;99327.78;5167908;28;19954;-79
2021/12/01 04:54:27;;;;;;;;;;;;;;;8.30;94.01;99337.69;5182500;28;20362;-80
2021/12/01 04:56:58;;;;;;;;;;;;;;;8.27;94.25;99319.81;5182017;28;19980;-79
2021/12/01 04:59:29;;;;;;;;;;;;;;;8.25;94.61;99322.06;5183768;28;19914;-79
2021/12/01 05:02:01;;;;;;;;;;;;;;;8.22;95.61;99317.97;5184436;28;19957;-78
2021/12/01 05:04:32;;;;;;;;;;;;;;;8.17;95.99;99307.03;5186755;28;20021;-79
2021/12/01 05:07:04;;;;;;;;;;;;;;;8.16;96.25;99310.13;5179944;28;19918;-78
2021/12/01 05:09:38;;;;;;;;;;;;;;;8.14;96.00;99298.56;5182864;28;19960;-78
2021/12/01 05:12:09;;;;;;;;;;;;;;;8.11;96.61;99308.28;5182345;28;20321;-78
2021/12/01 05:14:41;;;;;;;;;;;;;;;8.07;96.82;99298.97;5193973;28;19928;-78
2021/12/01 05:17:12;;;;;;;;;;;;;;;8.03;97.67;99290.50;5200778;28;20285;-78
2021/12/01 05:19:43;;;;;;;;;;;;;;;8.00;97.67;99304.09;5188680;28;19918;-78
2021/12/01 05:22:14;;;;;;;;;;;;;;;7.97;97.76;99277.13;5172013;28;19914;-78
2021/12/01 05:24:45;;;;;;;;;;;;;;;7.94;98.38;99277.75;5181808;28;19918;-78
2021/12/01 05:27:17;;;;;;;;;;;;;;;7.93;98.40;99276.94;5181793;28;19914;-78
2021/12/01 05:29:48;;;;;;;;;;;;;;;7.89;98.79;99277.88;5186136;28;19964;-78
2021/12/01 05:32:20;;;;;;;;;;;;;;;7.88;99.29;99268.78;5187051;28;19962;-78
2021/12/01 05:34:52;;;;;;;;;;;;;;;7.96;98.69;99264.47;5182512;28;19914;-78
2021/12/01 05:37:23;;;;;;;;;;;;;;;7.88;99.20;99266.00;5181498;28;19918;-77
2021/12/01 05:39:54;;;;;;;;;;;;;;;7.89;99.47;99264.88;5169665;28;19918;-77
2021/12/01 05:42:25;;;;;;;;;;;;;;;7.87;99.57;99260.78;5182693;28;19914;-77
2021/12/01 05:44:57;;;;;;;;;;;;;;;7.86;99.09;99254.47;5182377;28;19921;-77
2021/12/01 05:47:28;;;;;;;;;;;;;;;7.84;99.79;99256.72;5189083;28;20374;-77
2021/12/01 05:49:59;;;;;;;;;;;;;;;7.83;99.72;99244.84;5181383;28;19925;-78
2021/12/01 05:52:30;;;;;;;;;;;;;;;7.83;99.53;99220.03;5182530;28;20378;-78
2021/12/01 05:55:02;;;;;;;;;;;;;;;7.83;100.00;99228.28;5180131;28;19917;-77
2021/12/01 05:57:33;;;;;;;;;;;;;;;7.84;100.00;99229.09;5176361;28;20362;-79
2021/12/01 06:00:06;;;;;;;;;;;;;;;7.82;99.70;99225.84;5180647;28;19918;-78
2021/12/01 06:02:38;;;;;;;;;;;;;;;7.82;100.00;99212.03;5181223;28;19941;-80
2021/12/01 06:05:09;;;;;;;;;;;;;;;7.81;100.00;99214.00;5181177;28;20009;-79
2021/12/01 06:07:40;;;;;;;;;;;;;;;7.83;99.81;99202.66;5183105;28;19953;-80
2021/12/01 06:10:12;;;;;;;;;;;;;;;7.80;99.59;99195.81;5180943;28;19972;-80
2021/12/01 06:12:45;;;;;;;;;;;;;;;7.82;100.00;99179.75;5175122;28;19915;-80
2021/12/01 06:15:16;;;;;;;;;;;;;;;7.83;99.64;99167.56;5176259;28;19921;-79
2021/12/01 06:17:48;;;;;;;;;;;;;;;7.81;100.00;99169.81;5181028;28;19918;-80
2021/12/01 06:20:19;;;;;;;;;;;;;;;7.80;99.75;99159.94;5176821;28;20013;-79
2021/12/01 06:22:52;;;;;;;;;;;;;;;7.81;100.00;99161.56;5180496;28;20301;-78
2021/12/01 06:25:23;;;;;;;;;;;;;;;7.79;100.00;99155.53;5181135;28;19925;-78
2021/12/01 06:27:55;;;;;;;;;;;;;;;7.82;100.00;99151.31;5181677;28;19976;-78
2021/12/01 06:30:31;;;;;;;;;;;;;;;7.81;100.00;99158.78;5171553;28;19926;-78
2021/12/01 06:33:02;;;;;;;;;;;;;;;7.81;100.00;99141.41;5172801;28;19999;-79
2021/12/01 06:35:34;;;;;;;;;;;;;;;7.82;100.00;99151.31;5179693;28;20008;-79
2021/12/01 06:38:05;;;;;;;;;;;;;;;7.81;100.00;99133.13;5180969;28;19918;-78
2021/12/01 06:40:36;;;;;;;;;;;;;;;7.83;100.00;99139.97;5192049;28;19997;-79
2021/12/01 06:43:07;;;;;;;;;;;;;;;7.83;100.00;99145.50;5200851;28;19922;-79
2021/12/01 06:45:39;;;;;;;;;;;;;;;7.82;100.00;99121.81;5189854;28;19917;-79
2021/12/01 06:48:10;;;;;;;;;;;;;;;7.86;100.00;99123.94;5168363;28;19917;-79
2021/12/01 06:50:42;;;;;;;;;;;;;;;7.88;100.00;99116.16;5161567;28;19937;-79
2021/12/01 06:53:13;;;;;;;;;;;;;;;7.87;100.00;99120.84;5161259;29;19918;-80
2021/12/01 06:55:44;;;;;;;;;;;;;;;7.88;100.00;99116.16;5176895;28;19918;-80
2021/12/01 06:58:15;;;;;;;;;;;;;;;7.84;100.00;99114.00;5199539;28;19972;-78
2021/12/01 07:00:46;;;;;;;;;;;;;;;7.84;100.00;99108.47;5180858;28;20437;-79
2021/12/01 07:03:18;;;;;;;;;;;;;;;7.87;100.00;99095.19;5177504;28;19918;-80
2021/12/01 07:05:49;;;;;;;;;;;;;;;7.89;100.00;99104.78;5176760;28;20004;-78
2021/12/01 07:08:20;;;;;;;;;;;;;;;7.91;100.00;99102.53;5196180;28;19922;-78
2021/12/01 07:10:51;;;;;;;;;;;;;;;7.91;100.00;99094.25;5184412;28;19963;-77
2021/12/01 07:13:23;;;;;;;;;;;;;;;7.92;100.00;99092.28;5179896;28;19925;-78
2021/12/01 07:15:54;;;;;;;;;;;;;;;7.92;100.00;99089.53;5182450;28;19925;-78
2021/12/01 07:18:25;;;;;;;;;;;;;;;7.96;100.00;99090.56;5179872;28;20358;-75
2021/12/01 07:20:56;;;;;;;;;;;;;;;7.98;100.00;99091.88;5179266;28;19918;-78
2021/12/01 07:23:28;;;;;;;;;;;;;;;8.00;100.00;99073.03;5179855;28;20001;-78
2021/12/01 07:26:00;;;;;;;;;;;;;;;7.98;100.00;99086.34;5178919;28;19922;-73
2021/12/01 07:28:31;;;;;;;;;;;;;;;8.00;100.00;99083.25;5180264;28;19924;-73
2021/12/01 07:31:02;;;;;;;;;;;;;;;8.04;100.00;99096.13;5179013;28;19926;-74
2021/12/01 07:33:34;;;;;;;;;;;;;;;8.10;100.00;99088.50;5172484;28;20405;-73
2021/12/01 07:36:05;;;;;;;;;;;;;;;8.07;100.00;99089.16;5160278;29;19996;-73
2021/12/01 07:38:37;;;;;;;;;;;;;;;8.11;100.00;99095.69;5178288;28;19927;-76
2021/12/01 07:41:08;;;;;;;;;;;;;;;8.15;100.00;99077.34;5179625;28;19920;-76
2021/12/01 07:43:39;;;;;;;;;;;;;;;8.14;100.00;99078.47;5195155;28;19964;-76
2021/12/01 07:46:10;;;;;;;;;;;;;;;8.12;100.00;99091.78;5184568;28;20381;-77
2021/12/01 07:48:41;;;;;;;;;;;;;;;8.11;100.00;99089.34;5178000;28;19918;-77
2021/12/01 07:51:14;;;;;;;;;;;;;;;8.11;100.00;99090.16;5180194;28;19914;-74
2021/12/01 07:53:45;;;;;;;;;;;;;;;8.14;100.00;99072.94;5179435;28;20306;-74
2021/12/01 07:56:16;;;;;;;;;;;;;;;8.14;100.00;99072.94;5168565;28;19910;-74
2021/12/01 07:58:48;;;;;;;;;;;;;;;8.15;100.00;99046.97;5170616;28;20362;-74
2021/12/01 08:01:19;;;;;;;;;;;;;;;8.18;100.00;99051.88;5173406;28;20010;-73
2021/12/01 08:03:50;;;;;;;;;;;;;;;8.20;100.00;99043.25;5180224;28;19914;-79
2021/12/01 08:06:22;;;;;;;;;;;;;;;8.21;100.00;99061.47;5183613;28;19937;-73
2021/12/01 08:08:53;;;;;;;;;;;;;;;8.23;100.00;99045.38;5179250;28;19910;-73
2021/12/01 08:11:24;;;;;;;;;;;;;;;8.27;100.00;99055.47;5175684;28;19925;-74
2021/12/01 08:13:56;;;;;;;;;;;;;;;8.25;100.00;99051.41;5179098;28;20000;-77
2021/12/01 08:16:27;;;;;;;;;;;;;;;8.26;100.00;99037.28;5201539;28;19921;-76
2021/12/01 08:18:58;;;;;;;;;;;;;;;8.28;100.00;99035.03;5199848;28;19961;-75
2021/12/01 08:21:30;;;;;;;;;;;;;;;8.32;100.00;99042.66;5201886;28;19971;-77
2021/12/01 08:24:02;;;;;;;;;;;;;;;8.37;100.00;99031.47;5192496;28;19919;-81
2021/12/01 08:26:36;;;;;;;;;;;;;;;8.40;100.00;99036.38;5173210;28;19918;-81
2021/12/01 08:29:08;;;;;;;;;;;;;;;8.40;100.00;99031.66;5177729;28;19918;-83
2021/12/01 08:31:45;;;;;;;;;;;;;;;8.41;100.00;99027.78;5184597;28;19914;-83
2021/12/01 08:34:16;;;;;;;;;;;;;;;8.41;100.00;99036.06;5185278;28;19921;-84
2021/12/01 08:36:47;;;;;;;;;;;;;;;8.48;100.00;99030.06;5183920;28;19914;-84
2021/12/01 08:39:18;;;;;;;;;;;;;;;8.51;100.00;99014.81;5184470;28;19918;-83
2021/12/01 08:41:49;;;;;;;;;;;;;;;8.51;100.00;99025.84;5186330;28;20008;-83
2021/12/01 08:44:21;;;;;;;;;;;;;;;8.53;100.00;99015.31;5184619;28;19922;-84
2021/12/01 08:46:52;;;;;;;;;;;;;;;8.54;99.89;99014.16;5179343;28;19946;-77
2021/12/01 08:49:23;;;;;;;;;;;;;;;8.54;99.89;99020.53;5166167;28;19914;-77
2021/12/01 08:51:54;;;;;;;;;;;;;;;8.58;100.00;99015.97;5173055;28;19918;-76
2021/12/01 08:54:25;;;;;;;;;;;;;;;8.61;100.00;99012.53;5182988;28;19921;-76
2021/12/01 08:56:57;;;;;;;;;;;;;;;8.60;99.60;99007.38;5182127;28;20437;-76
2021/12/01 08:59:29;;;;;;;;;;;;;;;8.65;99.64;99013.53;5182189;28;20338;-77
2021/12/01 09:02:01;;;;;;;;;;;;;;;8.70;99.36;99007.88;5181193;28;19918;-75
2021/12/01 09:04:50;;;;;;;;;;;;;;;8.71;98.56;99026.06;5180869;28;19917;-76
2021/12/01 09:07:21;;;;;;;;;;;;;;;8.76;98.09;99016.00;5181727;28;20436;-75
2021/12/01 09:09:52;;;;;;;;;;;;;;;8.77;97.86;99012.09;5186587;28;19917;-76
2021/12/01 09:12:23;;;;;;;;;;;;;;;8.78;97.71;99024.81;5202629;28;20284;-76
2021/12/01 09:14:56;;;;;;;;;;;;;;;8.77;98.19;99007.41;5195427;28;19918;-76
2021/12/01 09:17:27;;;;;;;;;;;;;;;8.75;97.22;99014.41;5181246;28;19918;-76
2021/12/01 09:20:00;;;;;;;;;;;;;;;8.74;97.41;99024.59;5174001;28;20004;-77
2021/12/01 09:22:32;;;;;;;;;;;;;;;8.75;96.90;99020.72;5179890;28;19964;-76
2021/12/01 09:25:03;;;;;;;;;;;;;;;8.77;97.39;99023.16;5181811;28;19957;-75
2021/12/01 09:27:35;;;;;;;;;;;;;;;8.77;97.18;99014.88;5180845;28;19969;-74
2021/12/01 09:30:07;;;;;;;;;;;;;;;8.79;98.21;99026.41;5182016;28;19929;-76
2021/12/01 09:32:38;;;;;;;;;;;;;;;8.78;98.57;99008.22;5180959;28;19914;-75
2021/12/01 09:35:10;;;;;;;;;;;;;;;8.73;97.69;99027.72;5182264;28;20247;-75
2021/12/01 09:37:41;;;;;;;;;;;;;;;8.73;97.60;99039.56;5181295;28;19926;-76
2021/12/01 09:40:15;;;;;;;;;;;;;;;8.69;98.43;99044.94;5188436;28;19924;-76
2021/12/01 09:42:48;;;;;;;;;;;;;;;8.68;98.75;99054.34;5196009;28;20258;-80
2021/12/01 09:45:21;;;;;;;;;;;;;;;8.66;98.89;99058.56;5180951;28;20298;-75
2021/12/01 09:47:53;;;;;;;;;;;;;;;8.62;96.89;99049.31;5172474;28;19919;-76
2021/12/01 09:50:24;;;;;;;;;;;;;;;8.59;97.04;99053.53;5163045;28;19919;-75
2021/12/01 09:52:55;;;;;;;;;;;;;;;8.58;95.91;99051.06;5180850;28;20404;-71
2021/12/01 09:55:26;;;;;;;;;;;;;;;8.57;96.50;99041.97;5170312;28;19957;-73
2021/12/01 09:58:06;;;;;;;;;;;;;;;8.52;95.12;99049.59;5181847;28;19925;-77
2021/12/01 10:00:39;;;;;;;;;;;;;;;8.55;95.71;99044.25;5195211;28;19945;-73
2021/12/01 10:03:10;;;;;;;;;;;;;;;8.51;95.23;99059.81;5191893;28;20377;-73
2021/12/01 10:06:04;;;;;;;;;;;;;;;8.51;94.87;99047.94;5196573;28;19968;-72
2021/12/01 10:08:52;;;;;;;;;;;;;;;8.48;94.87;99044.69;5181824;28;20454;-77
2021/12/01 10:11:23;;;;;;;;;;;;;;;8.52;93.72;99044.06;5176644;28;19924;-76
2021/12/01 10:14:02;;;;;;;;;;;;;;;8.49;93.79;99038.06;5177321;28;19918;-79
2021/12/01 10:16:34;;;;;;;;;;;;;;;8.48;93.77;99035.59;5179551;28;19918;-79
2021/12/01 10:19:08;;;;;;;;;;;;;;;8.53;93.90;99040.16;5182691;28;19968;-78
2021/12/01 10:21:43;;;;;;;;;;;;;;;8.54;93.91;99036.25;5180714;28;19924;-77
2021/12/01 10:24:20;;;;;;;;;;;;;;;8.56;93.45;99040.31;5181237;28;20337;-76
2021/12/01 10:26:53;;;;;;;;;;;;;;;8.45;91.40;99044.53;5180773;28;19926;-78
2021/12/01 10:29:27;;;;;;;;;;;;;;;8.51;92.19;99048.75;5169330;28;19945;-78
2021/12/01 10:32:13;;;;;;;;;;;;;;;8.52;91.82;99044.88;5181165;28;19918;-76
2021/12/01 10:34:53;;;;;;;;;;;;;;;8.60;91.27;99041.31;5183045;28;19921;-75
2021/12/01 10:37:28;;;;;;;;;;;;;;;8.61;91.14;99040.19;5175141;28;19914;-76
2021/12/01 10:40:08;;;;;;;;;;;;;;;8.60;89.10;99038.56;5185921;28;19914;-80
2021/12/01 10:42:59;;;;;;;;;;;;;;;8.57;88.19;99036.44;5185553;28;19921;-82
2021/12/01 10:45:32;;;;;;;;;;;;;;;8.63;88.40;99035.16;5190572;28;20282;-82
2021/12/01 10:48:05;;;;;;;;;;;;;;;8.59;87.29;99030.59;5188548;28;19918;-81
2021/12/01 10:50:37;;;;;;;;;;;;;;;8.55;85.82;99035.94;5193635;28;19906;-82
2021/12/01 10:53:10;;;;;;;;;;;;;;;8.55;86.39;99035.13;5194836;28;20262;-82
2021/12/01 10:55:42;;;;;;;;;;;;;;;8.66;89.05;99023.44;5196096;28;19922;-83
2021/12/01 10:58:15;;;;;;;;;;;;;;;8.73;87.56;99030.47;5193254;28;19914;-77
2021/12/01 11:00:51;;;;;;;;;;;;;;;8.80;86.61;99023.34;5197628;28;19969;-81
2021/12/01 11:03:27;;;;;;;;;;;;;;;8.81;86.66;99018.63;5187527;28;19952;-82
2021/12/01 11:05:58;;;;;;;;;;;;;;;8.73;85.24;99025.75;5185794;28;19973;-78
2021/12/01 11:08:29;;;;;;;;;;;;;;;8.64;85.80;99031.28;5181907;28;19918;-76
2021/12/01 11:11:11;;;;;;;;;;;;;;;8.66;86.64;99034.50;5189267;28;20001;-76
2021/12/01 11:13:43;;;;;;;;;;;;;;;8.59;85.61;99044.41;5179131;28;20373;-75
2021/12/01 11:16:15;;;;;;;;;;;;;;;8.44;85.65;99048.44;5185561;28;20329;-78
2021/12/01 11:18:48;;;;;;;;;;;;;;;8.31;85.41;99055.66;5177415;28;19949;-76
2021/12/01 11:21:21;;;;;;;;;;;;;;;8.18;86.49;99060.16;5179610;28;19918;-75
2021/12/01 11:23:59;;;;;;;;;;;;;;;8.27;86.10;99044.41;5180281;28;19926;-75
2021/12/01 11:26:31;;;;;;;;;;;;;;;8.34;86.63;99051.44;5178485;28;19926;-77
2021/12/01 11:29:08;;;;;;;;;;;;;;;8.36;86.83;99057.44;5179903;28;19918;-77
2021/12/01 11:31:44;;;;;;;;;;;;;;;8.40;86.69;99058.47;5193504;28;19917;-76
2021/12/01 11:34:17;;;;;;;;;;;;;;;8.38;85.80;99055.19;5190964;28;19917;-76
2021/12/01 11:36:50;;;;;;;;;;;;;;;8.42;86.66;99050.69;5169779;28;20004;-75
2021/12/01 11:39:26;;;;;;;;;;;;;;;8.41;85.59;99055.41;5179555;28;19972;-76
2021/12/01 11:41:57;;;;;;;;;;;;;;;8.44;86.05;99048.44;5160185;28;19969;-78
2021/12/01 11:44:30;;;;;;;;;;;;;;;8.48;85.92;99043.88;5166632;28;20016;-75
2021/12/01 11:47:01;;;;;;;;;;;;;;;8.47;85.63;99036.75;5164803;28;20334;-78
2021/12/01 11:49:33;;;;;;;;;;;;;;;8.47;85.80;99032.03;5172854;28;20068;-75
2021/12/01 11:52:08;;;;;;;;;;;;;;;8.51;85.67;99031.38;5177589;28;19925;-75
2021/12/01 11:54:45;;;;;;;;;;;;;;;8.49;85.32;99045.53;5177160;28;19918;-76
2021/12/01 11:57:17;;;;;;;;;;;;;;;8.46;85.69;99035.94;5183314;28;20034;-76
2021/12/01 11:59:48;;;;;;;;;;;;;;;8.46;85.93;99038.69;5187629;28;19961;-76
2021/12/01 12:02:23;;;;;;;;;;;;;;;8.47;85.20;99043.06;5186439;28;19945;-76
2021/12/01 12:04:56;;;;;;;;;;;;;;;8.44;85.06;99042.91;5190788;28;19918;-79
2021/12/01 12:07:27;;;;;;;;;;;;;;;8.44;85.79;99049.25;5194354;28;19957;-75
2021/12/01 12:10:03;;;;;;;;;;;;;;;8.43;86.46;99039.31;5187615;28;20334;-79
2021/12/01 12:13:00;;;;;;;;;;;;;;;8.43;86.04;99044.03;5184209;28;19914;-75
2021/12/01 12:15:35;;;;;;;;;;;;;;;8.43;85.99;99055.06;5197745;28;19921;-74
2021/12/01 12:18:07;;;;;;;;;;;;;;;8.44;86.09;99059.50;5203610;28;19921;-74
2021/12/01 12:20:43;;;;;;;;;;;;;;;8.44;85.54;99048.44;5183129;28;19918;-75
2021/12/01 12:23:15;;;;;;;;;;;;;;;8.46;85.30;99063.56;5164219;28;19914;-73
2021/12/01 12:25:52;;;;;;;;;;;;;;;8.51;86.10;99057.06;5182887;28;20286;-74
2021/12/01 12:28:32;;;;;;;;;;;;;;;8.54;85.46;99053.66;5171542;28;19914;-73
2021/12/01 12:31:05;;;;;;;;;;;;;;;8.56;85.43;99054.16;5183105;28;20016;-76
2021/12/01 12:33:48;;;;;;;;;;;;;;;8.54;85.23;99042.63;5183048;28;19925;-74
2021/12/01 12:36:34;;;;;;;;;;;;;;;8.60;85.25;99033.03;5182874;28;19914;-74
2021/12/01 12:39:07;;;;;;;;;;;;;;;8.61;84.30;99047.66;5183187;28;20008;-77
2021/12/01 12:42:04;;;;;;;;;;;;;;;8.56;84.41;99034.00;5198155;28;19917;-76
2021/12/01 12:44:40;;;;;;;;;;;;;;;8.56;86.16;99042.28;5185008;28;19918;-75
2021/12/01 12:47:13;;;;;;;;;;;;;;;8.53;85.71;99032.69;5176114;28;19922;-74
2021/12/01 12:49:46;;;;;;;;;;;;;;;8.52;85.47;99044.88;5162228;28;20322;-75
2021/12/01 12:52:27;;;;;;;;;;;;;;;8.48;85.21;99043.88;5162926;28;19914;-75
2021/12/01 12:54:59;;;;;;;;;;;;;;;8.46;86.12;99052.50;5178169;28;19925;-74
2021/12/01 12:57:46;;;;;;;;;;;;;;;8.44;86.65;99038.19;5182414;28;20008;-75
2021/12/01 13:00:31;;;;;;;;;;;;;;;8.49;86.57;99045.53;5181731;28;19919;-74
2021/12/01 13:03:24;;;;;;;;;;;;;;;8.50;86.50;99041.63;5187162;28;19964;-74
2021/12/01 13:05:59;;;;;;;;;;;;;;;8.50;85.67;99041.63;5188090;28;19924;-77
2021/12/01 13:08:38;;;;;;;;;;;;;;;8.52;86.08;99039.34;5185931;28;19918;-74
2021/12/01 13:11:14;;;;;;;;;;;;;;;8.56;86.07;99042.28;5191771;28;19918;-75
2021/12/01 13:13:49;;;;;;;;;;;;;;;8.59;86.30;99039.72;5196014;28;19969;-74
2021/12/01 13:16:20;;;;;;;;;;;;;;;8.53;85.04;99040.97;5181554;28;19914;-75
2021/12/01 13:18:52;;;;;;;;;;;;;;;8.56;85.93;99039.53;5168850;28;20330;-75
2021/12/01 13:21:24;;;;;;;;;;;;;;;8.57;85.50;99036.44;5162427;28;19915;-76
2021/12/01 13:23:56;;;;;;;;;;;;;;;8.56;85.07;99034.81;5161797;29;19914;-75
2021/12/01 13:26:35;;;;;;;;;;;;;;;8.56;84.27;99045.03;5181344;28;19918;-79
2021/12/01 13:29:11;;;;;;;;;;;;;;;8.59;84.21;99044.41;5196423;28;19945;-77